sensor_id;sensor_type;location;lat;lon;timestamp;P1;durP1;ratioP1;P2;durP2;ratioP2
22490;SDS011;11412;50.802;4.350;2023-07-29T00:01:33;1.05;;;1.05;;
22490;SDS011;11412;50.802;4.350;2023-07-29T00:03:59;0.85;;;0.85;;
22490;SDS011;11412;50.802;4.350;2023-07-29T00:06:25;2.88;;;1.02;;
22490;SDS011;11412;50.802;4.350;2023-07-29T00:08:51;2.05;;;1.10;;
22490;SDS011;11412;50.802;4.350;2023-07-29T00:11:17;1.27;;;1.17;;
22490;SDS011;11412;50.802;4.350;2023-07-29T00:13:42;3.78;;;1.10;;
22490;SDS011;11412;50.802;4.350;2023-07-29T00:16:08;2.63;;;0.98;;
22490;SDS011;11412;50.802;4.350;2023-07-29T00:18:34;1.65;;;1.10;;
22490;SDS011;11412;50.802;4.350;2023-07-29T00:20:59;3.22;;;1.27;;
22490;SDS011;11412;50.802;4.350;2023-07-29T00:23:25;4.63;;;0.93;;
22490;SDS011;11412;50.802;4.350;2023-07-29T00:25:51;5.10;;;1.10;;
22490;SDS011;11412;50.802;4.350;2023-07-29T00:28:16;1.15;;;0.95;;
22490;SDS011;11412;50.802;4.350;2023-07-29T00:30:42;0.85;;;0.85;;
22490;SDS011;11412;50.802;4.350;2023-07-29T00:33:08;1.13;;;1.00;;
22490;SDS011;11412;50.802;4.350;2023-07-29T00:35:34;1.15;;;1.05;;
22490;SDS011;11412;50.802;4.350;2023-07-29T00:38:00;1.15;;;1.08;;
22490;SDS011;11412;50.802;4.350;2023-07-29T00:40:25;1.17;;;1.02;;
22490;SDS011;11412;50.802;4.350;2023-07-29T00:42:54;1.95;;;1.10;;
22490;SDS011;11412;50.802;4.350;2023-07-29T00:45:19;1.08;;;1.08;;
22490;SDS011;11412;50.802;4.350;2023-07-29T00:47:45;1.38;;;1.00;;
22490;SDS011;11412;50.802;4.350;2023-07-29T00:50:12;1.33;;;1.00;;
22490;SDS011;11412;50.802;4.350;2023-07-29T00:52:39;2.28;;;1.02;;
22490;SDS011;11412;50.802;4.350;2023-07-29T00:55:05;1.20;;;1.10;;
22490;SDS011;11412;50.802;4.350;2023-07-29T00:57:32;2.05;;;1.10;;
22490;SDS011;11412;50.802;4.350;2023-07-29T00:59:58;2.83;;;1.30;;
22490;SDS011;11412;50.802;4.350;2023-07-29T01:02:24;2.17;;;1.00;;
22490;SDS011;11412;50.802;4.350;2023-07-29T01:04:54;0.90;;;0.90;;
22490;SDS011;11412;50.802;4.350;2023-07-29T01:07:33;1.20;;;1.10;;
22490;SDS011;11412;50.802;4.350;2023-07-29T01:13:09;1.23;;;1.15;;
22490;SDS011;11412;50.802;4.350;2023-07-29T01:16:00;2.13;;;1.20;;
22490;SDS011;11412;50.802;4.350;2023-07-29T01:18:31;1.67;;;1.10;;
22490;SDS011;11412;50.802;4.350;2023-07-29T01:21:01;6.00;;;1.08;;
22490;SDS011;11412;50.802;4.350;2023-07-29T01:23:29;1.23;;;1.13;;
22490;SDS011;11412;50.802;4.350;2023-07-29T01:25:56;2.35;;;1.25;;
22490;SDS011;11412;50.802;4.350;2023-07-29T01:28:22;2.25;;;1.40;;
22490;SDS011;11412;50.802;4.350;2023-07-29T01:30:49;1.27;;;1.13;;
22490;SDS011;11412;50.802;4.350;2023-07-29T01:33:23;2.17;;;1.60;;
22490;SDS011;11412;50.802;4.350;2023-07-29T01:35:56;2.40;;;1.15;;
22490;SDS011;11412;50.802;4.350;2023-07-29T01:38:30;1.30;;;1.20;;
22490;SDS011;11412;50.802;4.350;2023-07-29T01:41:03;1.73;;;1.20;;
22490;SDS011;11412;50.802;4.350;2023-07-29T01:43:31;2.28;;;1.33;;
22490;SDS011;11412;50.802;4.350;2023-07-29T01:45:57;1.98;;;1.15;;
22490;SDS011;11412;50.802;4.350;2023-07-29T01:48:24;2.85;;;1.30;;
22490;SDS011;11412;50.802;4.350;2023-07-29T01:50:51;1.77;;;1.30;;
22490;SDS011;11412;50.802;4.350;2023-07-29T01:53:17;1.20;;;1.10;;
22490;SDS011;11412;50.802;4.350;2023-07-29T01:55:43;1.25;;;1.10;;
22490;SDS011;11412;50.802;4.350;2023-07-29T01:58:10;1.95;;;1.30;;
22490;SDS011;11412;50.802;4.350;2023-07-29T02:00:35;1.77;;;1.13;;
22490;SDS011;11412;50.802;4.350;2023-07-29T02:03:01;1.55;;;1.45;;
22490;SDS011;11412;50.802;4.350;2023-07-29T02:05:27;1.60;;;1.42;;
22490;SDS011;11412;50.802;4.350;2023-07-29T02:07:53;2.78;;;1.50;;
22490;SDS011;11412;50.802;4.350;2023-07-29T02:10:18;2.65;;;1.33;;
22490;SDS011;11412;50.802;4.350;2023-07-29T02:12:44;4.15;;;1.55;;
22490;SDS011;11412;50.802;4.350;2023-07-29T02:15:10;1.42;;;1.30;;
22490;SDS011;11412;50.802;4.350;2023-07-29T02:17:35;1.83;;;1.30;;
22490;SDS011;11412;50.802;4.350;2023-07-29T02:20:02;1.35;;;1.25;;
22490;SDS011;11412;50.802;4.350;2023-07-29T02:22:29;1.20;;;1.00;;
22490;SDS011;11412;50.802;4.350;2023-07-29T02:24:55;1.48;;;1.35;;
22490;SDS011;11412;50.802;4.350;2023-07-29T02:27:20;2.25;;;1.35;;
22490;SDS011;11412;50.802;4.350;2023-07-29T02:29:46;3.03;;;1.60;;
22490;SDS011;11412;50.802;4.350;2023-07-29T02:32:12;2.05;;;1.88;;
22490;SDS011;11412;50.802;4.350;2023-07-29T02:34:37;2.67;;;1.25;;
22490;SDS011;11412;50.802;4.350;2023-07-29T02:37:03;1.40;;;1.30;;
22490;SDS011;11412;50.802;4.350;2023-07-29T02:39:29;2.08;;;1.30;;
22490;SDS011;11412;50.802;4.350;2023-07-29T02:41:55;1.60;;;1.27;;
22490;SDS011;11412;50.802;4.350;2023-07-29T02:44:23;1.38;;;1.27;;
22490;SDS011;11412;50.802;4.350;2023-07-29T02:46:49;1.77;;;1.55;;
22490;SDS011;11412;50.802;4.350;2023-07-29T02:49:14;1.10;;;1.10;;
22490;SDS011;11412;50.802;4.350;2023-07-29T02:51:40;3.60;;;1.58;;
22490;SDS011;11412;50.802;4.350;2023-07-29T02:54:06;2.35;;;1.85;;
22490;SDS011;11412;50.802;4.350;2023-07-29T02:56:31;3.45;;;1.52;;
22490;SDS011;11412;50.802;4.350;2023-07-29T02:58:57;2.13;;;1.38;;
22490;SDS011;11412;50.802;4.350;2023-07-29T03:01:22;3.22;;;1.38;;
22490;SDS011;11412;50.802;4.350;2023-07-29T03:03:50;1.60;;;1.50;;
22490;SDS011;11412;50.802;4.350;2023-07-29T03:06:16;3.03;;;1.70;;
22490;SDS011;11412;50.802;4.350;2023-07-29T03:08:41;2.70;;;1.40;;
22490;SDS011;11412;50.802;4.350;2023-07-29T03:11:08;1.52;;;1.50;;
22490;SDS011;11412;50.802;4.350;2023-07-29T03:13:35;1.10;;;1.10;;
22490;SDS011;11412;50.802;4.350;2023-07-29T03:16:09;1.98;;;1.58;;
22490;SDS011;11412;50.802;4.350;2023-07-29T03:21:02;5.05;;;1.42;;
22490;SDS011;11412;50.802;4.350;2023-07-29T03:23:28;1.70;;;1.60;;
22490;SDS011;11412;50.802;4.350;2023-07-29T03:25:55;1.25;;;1.25;;
22490;SDS011;11412;50.802;4.350;2023-07-29T03:28:23;1.40;;;1.30;;
22490;SDS011;11412;50.802;4.350;2023-07-29T03:30:54;1.67;;;1.50;;
22490;SDS011;11412;50.802;4.350;2023-07-29T03:33:24;2.20;;;1.20;;
22490;SDS011;11412;50.802;4.350;2023-07-29T03:35:50;3.03;;;1.60;;
22490;SDS011;11412;50.802;4.350;2023-07-29T03:38:16;2.17;;;1.20;;
22490;SDS011;11412;50.802;4.350;2023-07-29T03:40:42;2.15;;;1.48;;
22490;SDS011;11412;50.802;4.350;2023-07-29T03:43:08;2.58;;;1.38;;
22490;SDS011;11412;50.802;4.350;2023-07-29T03:45:34;4.07;;;1.70;;
22490;SDS011;11412;50.802;4.350;2023-07-29T03:48:00;2.25;;;1.58;;
22490;SDS011;11412;50.802;4.350;2023-07-29T03:50:26;3.30;;;1.40;;
22490;SDS011;11412;50.802;4.350;2023-07-29T03:52:53;2.50;;;1.80;;
22490;SDS011;11412;50.802;4.350;2023-07-29T03:55:18;1.45;;;1.40;;
22490;SDS011;11412;50.802;4.350;2023-07-29T03:57:44;1.77;;;1.30;;
22490;SDS011;11412;50.802;4.350;2023-07-29T04:00:10;1.30;;;1.20;;
22490;SDS011;11412;50.802;4.350;2023-07-29T04:02:35;2.78;;;1.50;;
22490;SDS011;11412;50.802;4.350;2023-07-29T04:05:04;2.58;;;1.63;;
22490;SDS011;11412;50.802;4.350;2023-07-29T04:07:33;5.15;;;1.40;;
22490;SDS011;11412;50.802;4.350;2023-07-29T04:09:59;1.85;;;1.60;;
22490;SDS011;11412;50.802;4.350;2023-07-29T04:12:26;1.45;;;1.35;;
22490;SDS011;11412;50.802;4.350;2023-07-29T04:14:52;1.45;;;1.27;;
22490;SDS011;11412;50.802;4.350;2023-07-29T04:17:17;1.58;;;1.48;;
22490;SDS011;11412;50.802;4.350;2023-07-29T04:19:43;1.90;;;1.73;;
22490;SDS011;11412;50.802;4.350;2023-07-29T04:22:09;1.80;;;1.40;;
22490;SDS011;11412;50.802;4.350;2023-07-29T04:24:34;2.08;;;1.83;;
22490;SDS011;11412;50.802;4.350;2023-07-29T04:27:00;3.50;;;1.65;;
22490;SDS011;11412;50.802;4.350;2023-07-29T04:29:26;1.70;;;1.60;;
22490;SDS011;11412;50.802;4.350;2023-07-29T04:31:51;2.00;;;1.60;;
22490;SDS011;11412;50.802;4.350;2023-07-29T04:34:18;1.40;;;1.30;;
22490;SDS011;11412;50.802;4.350;2023-07-29T04:36:44;2.45;;;1.42;;
22490;SDS011;11412;50.802;4.350;2023-07-29T04:39:10;1.70;;;1.23;;
22490;SDS011;11412;50.802;4.350;2023-07-29T04:41:35;2.22;;;1.23;;
22490;SDS011;11412;50.802;4.350;2023-07-29T04:44:01;6.28;;;2.45;;
22490;SDS011;11412;50.802;4.350;2023-07-29T04:46:27;3.08;;;1.30;;
22490;SDS011;11412;50.802;4.350;2023-07-29T04:48:52;2.75;;;1.38;;
22490;SDS011;11412;50.802;4.350;2023-07-29T04:51:18;3.95;;;2.08;;
22490;SDS011;11412;50.802;4.350;2023-07-29T04:53:44;2.55;;;1.20;;
22490;SDS011;11412;50.802;4.350;2023-07-29T04:56:09;2.53;;;1.25;;
22490;SDS011;11412;50.802;4.350;2023-07-29T04:58:35;3.35;;;1.30;;
22490;SDS011;11412;50.802;4.350;2023-07-29T05:01:01;2.35;;;1.80;;
22490;SDS011;11412;50.802;4.350;2023-07-29T05:03:28;1.55;;;1.20;;
22490;SDS011;11412;50.802;4.350;2023-07-29T05:05:54;5.45;;;1.40;;
22490;SDS011;11412;50.802;4.350;2023-07-29T05:08:20;2.40;;;1.08;;
22490;SDS011;11412;50.802;4.350;2023-07-29T05:10:49;4.97;;;1.40;;
22490;SDS011;11412;50.802;4.350;2023-07-29T05:13:19;2.80;;;1.33;;
22490;SDS011;11412;50.802;4.350;2023-07-29T05:15:46;4.22;;;1.13;;
22490;SDS011;11412;50.802;4.350;2023-07-29T05:18:13;2.78;;;1.25;;
22490;SDS011;11412;50.802;4.350;2023-07-29T05:20:38;1.35;;;1.25;;
22490;SDS011;11412;50.802;4.350;2023-07-29T05:23:04;3.53;;;1.48;;
22490;SDS011;11412;50.802;4.350;2023-07-29T05:25:30;2.58;;;1.23;;
22490;SDS011;11412;50.802;4.350;2023-07-29T05:27:55;1.00;;;1.00;;
22490;SDS011;11412;50.802;4.350;2023-07-29T05:30:22;3.83;;;1.63;;
22490;SDS011;11412;50.802;4.350;2023-07-29T05:32:48;4.22;;;1.45;;
22490;SDS011;11412;50.802;4.350;2023-07-29T05:35:13;1.33;;;1.23;;
22490;SDS011;11412;50.802;4.350;2023-07-29T05:37:39;1.40;;;1.30;;
22490;SDS011;11412;50.802;4.350;2023-07-29T05:40:06;1.45;;;1.30;;
22490;SDS011;11412;50.802;4.350;2023-07-29T05:42:32;1.00;;;1.00;;
22490;SDS011;11412;50.802;4.350;2023-07-29T05:44:58;2.17;;;1.10;;
22490;SDS011;11412;50.802;4.350;2023-07-29T05:47:25;6.30;;;1.20;;
22490;SDS011;11412;50.802;4.350;2023-07-29T05:49:50;1.58;;;1.10;;
22490;SDS011;11412;50.802;4.350;2023-07-29T05:52:16;1.75;;;1.23;;
22490;SDS011;11412;50.802;4.350;2023-07-29T05:54:41;2.83;;;1.15;;
22490;SDS011;11412;50.802;4.350;2023-07-29T05:57:08;2.55;;;0.98;;
22490;SDS011;11412;50.802;4.350;2023-07-29T05:59:37;1.95;;;1.08;;
22490;SDS011;11412;50.802;4.350;2023-07-29T06:02:03;1.30;;;1.20;;
22490;SDS011;11412;50.802;4.350;2023-07-29T06:04:29;4.45;;;1.13;;
22490;SDS011;11412;50.802;4.350;2023-07-29T06:06:55;1.13;;;1.02;;
22490;SDS011;11412;50.802;4.350;2023-07-29T06:09:21;2.92;;;1.30;;
22490;SDS011;11412;50.802;4.350;2023-07-29T06:11:48;1.27;;;1.15;;
22490;SDS011;11412;50.802;4.350;2023-07-29T06:14:13;1.00;;;0.90;;
22490;SDS011;11412;50.802;4.350;2023-07-29T06:16:39;1.77;;;1.10;;
22490;SDS011;11412;50.802;4.350;2023-07-29T06:19:04;1.25;;;1.00;;
22490;SDS011;11412;50.802;4.350;2023-07-29T06:21:30;1.40;;;1.30;;
22490;SDS011;11412;50.802;4.350;2023-07-29T06:23:56;3.38;;;1.23;;
22490;SDS011;11412;50.802;4.350;2023-07-29T06:26:22;1.10;;;1.00;;
22490;SDS011;11412;50.802;4.350;2023-07-29T06:28:47;4.20;;;1.20;;
22490;SDS011;11412;50.802;4.350;2023-07-29T06:31:13;3.15;;;1.00;;
22490;SDS011;11412;50.802;4.350;2023-07-29T06:33:40;1.15;;;1.10;;
22490;SDS011;11412;50.802;4.350;2023-07-29T06:36:06;2.00;;;1.00;;
22490;SDS011;11412;50.802;4.350;2023-07-29T06:38:32;1.48;;;1.10;;
22490;SDS011;11412;50.802;4.350;2023-07-29T06:40:57;0.80;;;0.80;;
22490;SDS011;11412;50.802;4.350;2023-07-29T06:43:23;1.05;;;1.05;;
22490;SDS011;11412;50.802;4.350;2023-07-29T06:45:49;1.58;;;0.90;;
22490;SDS011;11412;50.802;4.350;2023-07-29T06:48:14;1.00;;;0.90;;
22490;SDS011;11412;50.802;4.350;2023-07-29T06:50:40;1.60;;;1.15;;
22490;SDS011;11412;50.802;4.350;2023-07-29T06:53:06;1.08;;;0.93;;
22490;SDS011;11412;50.802;4.350;2023-07-29T06:55:31;2.70;;;1.00;;
22490;SDS011;11412;50.802;4.350;2023-07-29T06:57:57;1.52;;;1.42;;
22490;SDS011;11412;50.802;4.350;2023-07-29T07:00:23;3.97;;;1.20;;
22490;SDS011;11412;50.802;4.350;2023-07-29T07:02:49;1.33;;;1.00;;
22490;SDS011;11412;50.802;4.350;2023-07-29T07:05:14;1.15;;;1.00;;
22490;SDS011;11412;50.802;4.350;2023-07-29T07:07:40;3.08;;;1.10;;
22490;SDS011;11412;50.802;4.350;2023-07-29T07:10:06;1.17;;;0.90;;
22490;SDS011;11412;50.802;4.350;2023-07-29T07:12:32;1.67;;;1.58;;
22490;SDS011;11412;50.802;4.350;2023-07-29T07:14:57;0.93;;;0.93;;
22490;SDS011;11412;50.802;4.350;2023-07-29T07:17:23;1.20;;;0.90;;
22490;SDS011;11412;50.802;4.350;2023-07-29T07:19:49;0.90;;;0.90;;
22490;SDS011;11412;50.802;4.350;2023-07-29T07:22:15;2.45;;;1.05;;
22490;SDS011;11412;50.802;4.350;2023-07-29T07:24:41;1.95;;;1.10;;
22490;SDS011;11412;50.802;4.350;2023-07-29T07:27:06;2.65;;;0.80;;
22490;SDS011;11412;50.802;4.350;2023-07-29T07:29:32;1.88;;;0.88;;
22490;SDS011;11412;50.802;4.350;2023-07-29T07:31:58;1.02;;;1.00;;
22490;SDS011;11412;50.802;4.350;2023-07-29T07:34:24;4.45;;;1.15;;
22490;SDS011;11412;50.802;4.350;2023-07-29T07:36:50;3.00;;;1.27;;
22490;SDS011;11412;50.802;4.350;2023-07-29T07:39:15;2.35;;;1.10;;
22490;SDS011;11412;50.802;4.350;2023-07-29T07:41:41;2.35;;;1.17;;
22490;SDS011;11412;50.802;4.350;2023-07-29T07:44:07;1.10;;;1.00;;
22490;SDS011;11412;50.802;4.350;2023-07-29T07:46:33;2.45;;;0.90;;
22490;SDS011;11412;50.802;4.350;2023-07-29T07:48:58;1.50;;;1.13;;
22490;SDS011;11412;50.802;4.350;2023-07-29T07:51:24;1.15;;;0.82;;
22490;SDS011;11412;50.802;4.350;2023-07-29T07:53:50;1.02;;;1.02;;
22490;SDS011;11412;50.802;4.350;2023-07-29T07:56:15;1.27;;;1.10;;
22490;SDS011;11412;50.802;4.350;2023-07-29T07:58:41;0.93;;;0.80;;
22490;SDS011;11412;50.802;4.350;2023-07-29T08:01:08;0.90;;;0.90;;
22490;SDS011;11412;50.802;4.350;2023-07-29T08:03:34;2.00;;;1.02;;
22490;SDS011;11412;50.802;4.350;2023-07-29T08:06:00;0.90;;;0.90;;
22490;SDS011;11412;50.802;4.350;2023-07-29T08:08:27;1.23;;;0.93;;
22490;SDS011;11412;50.802;4.350;2023-07-29T08:10:53;0.88;;;0.88;;
22490;SDS011;11412;50.802;4.350;2023-07-29T08:13:23;1.30;;;1.20;;
22490;SDS011;11412;50.802;4.350;2023-07-29T08:15:50;1.38;;;1.30;;
22490;SDS011;11412;50.802;4.350;2023-07-29T08:18:16;2.40;;;0.80;;
22490;SDS011;11412;50.802;4.350;2023-07-29T08:20:55;0.90;;;0.90;;
22490;SDS011;11412;50.802;4.350;2023-07-29T08:23:32;1.55;;;1.17;;
22490;SDS011;11412;50.802;4.350;2023-07-29T08:25:59;1.38;;;1.13;;
22490;SDS011;11412;50.802;4.350;2023-07-29T08:28:30;1.98;;;0.90;;
22490;SDS011;11412;50.802;4.350;2023-07-29T08:31:00;2.42;;;0.80;;
22490;SDS011;11412;50.802;4.350;2023-07-29T08:33:26;1.75;;;0.93;;
22490;SDS011;11412;50.802;4.350;2023-07-29T08:35:52;2.08;;;1.35;;
22490;SDS011;11412;50.802;4.350;2023-07-29T08:38:17;1.23;;;1.17;;
22490;SDS011;11412;50.802;4.350;2023-07-29T08:40:52;1.20;;;1.13;;
22490;SDS011;11412;50.802;4.350;2023-07-29T08:43:28;0.90;;;0.90;;
22490;SDS011;11412;50.802;4.350;2023-07-29T08:45:58;4.35;;;1.30;;
22490;SDS011;11412;50.802;4.350;2023-07-29T08:48:29;2.05;;;1.10;;
22490;SDS011;11412;50.802;4.350;2023-07-29T08:51:14;0.98;;;0.82;;
22490;SDS011;11412;50.802;4.350;2023-07-29T08:53:42;2.55;;;0.90;;
22490;SDS011;11412;50.802;4.350;2023-07-29T08:56:08;1.45;;;0.90;;
22490;SDS011;11412;50.802;4.350;2023-07-29T08:58:34;2.17;;;1.23;;
22490;SDS011;11412;50.802;4.350;2023-07-29T09:01:00;4.28;;;1.20;;
22490;SDS011;11412;50.802;4.350;2023-07-29T09:03:26;2.10;;;0.95;;
22490;SDS011;11412;50.802;4.350;2023-07-29T09:05:52;1.17;;;0.90;;
22490;SDS011;11412;50.802;4.350;2023-07-29T09:08:19;1.15;;;1.08;;
22490;SDS011;11412;50.802;4.350;2023-07-29T09:10:46;2.30;;;0.95;;
22490;SDS011;11412;50.802;4.350;2023-07-29T09:13:12;1.10;;;1.10;;
22490;SDS011;11412;50.802;4.350;2023-07-29T09:15:37;2.45;;;1.20;;
22490;SDS011;11412;50.802;4.350;2023-07-29T09:18:11;2.05;;;0.98;;
22490;SDS011;11412;50.802;4.350;2023-07-29T09:20:41;1.48;;;1.10;;
22490;SDS011;11412;50.802;4.350;2023-07-29T09:23:08;2.00;;;1.10;;
22490;SDS011;11412;50.802;4.350;2023-07-29T09:25:37;1.58;;;1.10;;
22490;SDS011;11412;50.802;4.350;2023-07-29T09:28:10;1.55;;;1.00;;
22490;SDS011;11412;50.802;4.350;2023-07-29T09:30:39;1.40;;;1.30;;
22490;SDS011;11412;50.802;4.350;2023-07-29T09:33:06;2.13;;;0.98;;
22490;SDS011;11412;50.802;4.350;2023-07-29T09:35:33;1.38;;;0.90;;
22490;SDS011;11412;50.802;4.350;2023-07-29T09:38:00;1.00;;;0.90;;
22490;SDS011;11412;50.802;4.350;2023-07-29T09:40:26;1.10;;;1.05;;
22490;SDS011;11412;50.802;4.350;2023-07-29T09:42:53;0.95;;;0.95;;
22490;SDS011;11412;50.802;4.350;2023-07-29T09:45:21;1.10;;;1.10;;
22490;SDS011;11412;50.802;4.350;2023-07-29T09:47:48;1.00;;;1.00;;
22490;SDS011;11412;50.802;4.350;2023-07-29T09:50:14;0.90;;;0.90;;
22490;SDS011;11412;50.802;4.350;2023-07-29T09:52:40;1.20;;;1.20;;
22490;SDS011;11412;50.802;4.350;2023-07-29T09:55:07;1.40;;;1.30;;
22490;SDS011;11412;50.802;4.350;2023-07-29T09:57:33;1.67;;;1.05;;
22490;SDS011;11412;50.802;4.350;2023-07-29T09:59:59;1.30;;;1.23;;
22490;SDS011;11412;50.802;4.350;2023-07-29T10:02:25;3.08;;;1.25;;
22490;SDS011;11412;50.802;4.350;2023-07-29T10:04:53;1.17;;;1.00;;
22490;SDS011;11412;50.802;4.350;2023-07-29T10:07:21;2.20;;;1.38;;
22490;SDS011;11412;50.802;4.350;2023-07-29T10:09:47;1.27;;;1.27;;
22490;SDS011;11412;50.802;4.350;2023-07-29T10:12:15;1.05;;;0.90;;
22490;SDS011;11412;50.802;4.350;2023-07-29T10:14:40;1.17;;;1.15;;
22490;SDS011;11412;50.802;4.350;2023-07-29T10:17:07;1.15;;;1.05;;
22490;SDS011;11412;50.802;4.350;2023-07-29T10:19:34;2.88;;;1.40;;
22490;SDS011;11412;50.802;4.350;2023-07-29T10:22:01;2.67;;;1.40;;
22490;SDS011;11412;50.802;4.350;2023-07-29T10:24:29;3.25;;;1.60;;
22490;SDS011;11412;50.802;4.350;2023-07-29T10:26:58;2.10;;;1.77;;
22490;SDS011;11412;50.802;4.350;2023-07-29T10:29:25;5.60;;;1.63;;
22490;SDS011;11412;50.802;4.350;2023-07-29T10:31:55;1.90;;;1.33;;
22490;SDS011;11412;50.802;4.350;2023-07-29T10:34:22;1.77;;;1.60;;
22490;SDS011;11412;50.802;4.350;2023-07-29T10:36:50;2.30;;;1.80;;
22490;SDS011;11412;50.802;4.350;2023-07-29T10:39:16;2.20;;;1.40;;
22490;SDS011;11412;50.802;4.350;2023-07-29T10:41:58;2.05;;;1.50;;
22490;SDS011;11412;50.802;4.350;2023-07-29T10:47:18;2.03;;;1.63;;
22490;SDS011;11412;50.802;4.350;2023-07-29T10:49:46;1.80;;;1.70;;
22490;SDS011;11412;50.802;4.350;2023-07-29T10:52:14;1.35;;;1.27;;
22490;SDS011;11412;50.802;4.350;2023-07-29T10:54:45;4.43;;;1.55;;
22490;SDS011;11412;50.802;4.350;2023-07-29T10:57:15;1.48;;;1.40;;
22490;SDS011;11412;50.802;4.350;2023-07-29T10:59:55;2.22;;;1.50;;
22490;SDS011;11412;50.802;4.350;2023-07-29T11:02:22;1.85;;;1.75;;
22490;SDS011;11412;50.802;4.350;2023-07-29T11:04:57;4.18;;;1.88;;
22490;SDS011;11412;50.802;4.350;2023-07-29T11:07:25;3.70;;;1.65;;
22490;SDS011;11412;50.802;4.350;2023-07-29T11:12:38;3.25;;;1.77;;
22490;SDS011;11412;50.802;4.350;2023-07-29T11:17:54;2.50;;;1.77;;
22490;SDS011;11412;50.802;4.350;2023-07-29T11:20:21;2.47;;;2.28;;
22490;SDS011;11412;50.802;4.350;2023-07-29T11:22:53;2.30;;;1.38;;
22490;SDS011;11412;50.802;4.350;2023-07-29T11:25:20;1.70;;;1.60;;
22490;SDS011;11412;50.802;4.350;2023-07-29T11:27:47;2.05;;;1.13;;
22490;SDS011;11412;50.802;4.350;2023-07-29T11:30:14;1.50;;;1.40;;
22490;SDS011;11412;50.802;4.350;2023-07-29T11:32:42;1.65;;;1.55;;
22490;SDS011;11412;50.802;4.350;2023-07-29T11:35:09;2.05;;;1.50;;
22490;SDS011;11412;50.802;4.350;2023-07-29T11:37:46;1.83;;;1.73;;
22490;SDS011;11412;50.802;4.350;2023-07-29T11:40:16;1.77;;;1.67;;
22490;SDS011;11412;50.802;4.350;2023-07-29T11:42:45;1.80;;;1.70;;
22490;SDS011;11412;50.802;4.350;2023-07-29T11:45:12;1.52;;;1.50;;
22490;SDS011;11412;50.802;4.350;2023-07-29T11:47:38;1.80;;;1.70;;
22490;SDS011;11412;50.802;4.350;2023-07-29T11:50:05;1.40;;;1.40;;
22490;SDS011;11412;50.802;4.350;2023-07-29T11:52:34;1.30;;;1.20;;
22490;SDS011;11412;50.802;4.350;2023-07-29T11:55:02;1.30;;;1.30;;
22490;SDS011;11412;50.802;4.350;2023-07-29T11:57:29;3.50;;;1.50;;
22490;SDS011;11412;50.802;4.350;2023-07-29T11:59:55;2.22;;;1.17;;
22490;SDS011;11412;50.802;4.350;2023-07-29T12:02:22;1.88;;;1.30;;
22490;SDS011;11412;50.802;4.350;2023-07-29T12:04:48;2.13;;;1.30;;
22490;SDS011;11412;50.802;4.350;2023-07-29T12:07:16;2.70;;;1.25;;
22490;SDS011;11412;50.802;4.350;2023-07-29T12:09:42;2.38;;;1.50;;
22490;SDS011;11412;50.802;4.350;2023-07-29T12:12:08;1.45;;;1.45;;
22490;SDS011;11412;50.802;4.350;2023-07-29T12:14:34;1.45;;;1.38;;
22490;SDS011;11412;50.802;4.350;2023-07-29T12:17:01;1.63;;;1.52;;
22490;SDS011;11412;50.802;4.350;2023-07-29T12:19:34;1.60;;;1.50;;
22490;SDS011;11412;50.802;4.350;2023-07-29T12:22:02;2.60;;;1.93;;
22490;SDS011;11412;50.802;4.350;2023-07-29T12:24:33;1.65;;;1.55;;
22490;SDS011;11412;50.802;4.350;2023-07-29T12:27:00;2.33;;;2.22;;
22490;SDS011;11412;50.802;4.350;2023-07-29T12:29:26;3.20;;;1.90;;
22490;SDS011;11412;50.802;4.350;2023-07-29T12:31:58;2.40;;;2.22;;
22490;SDS011;11412;50.802;4.350;2023-07-29T12:34:29;2.00;;;1.90;;
22490;SDS011;11412;50.802;4.350;2023-07-29T12:36:56;1.75;;;1.70;;
22490;SDS011;11412;50.802;4.350;2023-07-29T12:39:29;3.17;;;1.42;;
22490;SDS011;11412;50.802;4.350;2023-07-29T12:41:58;1.58;;;1.58;;
22490;SDS011;11412;50.802;4.350;2023-07-29T12:44:25;2.63;;;1.73;;
22490;SDS011;11412;50.802;4.350;2023-07-29T12:46:54;3.53;;;1.90;;
22490;SDS011;11412;50.802;4.350;2023-07-29T12:49:20;2.25;;;2.15;;
22490;SDS011;11412;50.802;4.350;2023-07-29T12:51:46;4.35;;;2.20;;
22490;SDS011;11412;50.802;4.350;2023-07-29T12:54:11;2.63;;;2.47;;
22490;SDS011;11412;50.802;4.350;2023-07-29T12:56:37;2.33;;;2.22;;
22490;SDS011;11412;50.802;4.350;2023-07-29T12:59:03;2.58;;;2.10;;
22490;SDS011;11412;50.802;4.350;2023-07-29T13:01:30;2.33;;;2.00;;
22490;SDS011;11412;50.802;4.350;2023-07-29T13:03:56;1.98;;;1.88;;
22490;SDS011;11412;50.802;4.350;2023-07-29T13:06:21;2.33;;;2.15;;
22490;SDS011;11412;50.802;4.350;2023-07-29T13:08:47;1.70;;;1.60;;
22490;SDS011;11412;50.802;4.350;2023-07-29T13:11:14;2.92;;;1.85;;
22490;SDS011;11412;50.802;4.350;2023-07-29T13:13:40;3.70;;;2.38;;
22490;SDS011;11412;50.802;4.350;2023-07-29T13:16:06;2.42;;;1.60;;
22490;SDS011;11412;50.802;4.350;2023-07-29T13:18:32;3.35;;;1.70;;
22490;SDS011;11412;50.802;4.350;2023-07-29T13:20:58;2.40;;;1.90;;
22490;SDS011;11412;50.802;4.350;2023-07-29T13:23:25;3.35;;;2.13;;
22490;SDS011;11412;50.802;4.350;2023-07-29T13:25:52;1.80;;;1.70;;
22490;SDS011;11412;50.802;4.350;2023-07-29T13:28:17;2.03;;;1.92;;
22490;SDS011;11412;50.802;4.350;2023-07-29T13:30:44;1.85;;;1.75;;
22490;SDS011;11412;50.802;4.350;2023-07-29T13:33:10;1.90;;;1.80;;
22490;SDS011;11412;50.802;4.350;2023-07-29T13:35:36;1.50;;;1.50;;
22490;SDS011;11412;50.802;4.350;2023-07-29T13:38:02;2.83;;;1.60;;
22490;SDS011;11412;50.802;4.350;2023-07-29T13:40:28;1.38;;;1.27;;
22490;SDS011;11412;50.802;4.350;2023-07-29T13:42:53;1.40;;;1.33;;
22490;SDS011;11412;50.802;4.350;2023-07-29T13:45:20;1.40;;;1.40;;
22490;SDS011;11412;50.802;4.350;2023-07-29T13:47:46;0.90;;;0.90;;
22490;SDS011;11412;50.802;4.350;2023-07-29T13:50:11;2.15;;;1.17;;
22490;SDS011;11412;50.802;4.350;2023-07-29T13:52:38;1.05;;;1.05;;
22490;SDS011;11412;50.802;4.350;2023-07-29T13:55:04;1.10;;;1.10;;
22490;SDS011;11412;50.802;4.350;2023-07-29T13:57:31;1.00;;;1.00;;
22490;SDS011;11412;50.802;4.350;2023-07-29T13:59:57;1.00;;;1.00;;
22490;SDS011;11412;50.802;4.350;2023-07-29T14:02:22;1.10;;;1.10;;
22490;SDS011;11412;50.802;4.350;2023-07-29T14:04:48;0.93;;;0.93;;
22490;SDS011;11412;50.802;4.350;2023-07-29T14:07:14;4.72;;;1.67;;
22490;SDS011;11412;50.802;4.350;2023-07-29T14:09:40;2.20;;;0.82;;
22490;SDS011;11412;50.802;4.350;2023-07-29T14:12:08;0.93;;;0.93;;
22490;SDS011;11412;50.802;4.350;2023-07-29T14:14:37;0.77;;;0.77;;
22490;SDS011;11412;50.802;4.350;2023-07-29T14:17:03;2.13;;;1.00;;
22490;SDS011;11412;50.802;4.350;2023-07-29T14:19:29;1.00;;;1.00;;
22490;SDS011;11412;50.802;4.350;2023-07-29T14:21:56;1.13;;;1.02;;
22490;SDS011;11412;50.802;4.350;2023-07-29T14:24:21;1.23;;;1.13;;
22490;SDS011;11412;50.802;4.350;2023-07-29T14:26:47;0.88;;;0.88;;
22490;SDS011;11412;50.802;4.350;2023-07-29T14:29:13;0.85;;;0.85;;
22490;SDS011;11412;50.802;4.350;2023-07-29T14:31:39;1.05;;;0.98;;
22490;SDS011;11412;50.802;4.350;2023-07-29T14:34:05;1.08;;;1.02;;
22490;SDS011;11412;50.802;4.350;2023-07-29T14:36:30;0.98;;;0.98;;
22490;SDS011;11412;50.802;4.350;2023-07-29T14:38:56;0.70;;;0.70;;
22490;SDS011;11412;50.802;4.350;2023-07-29T14:41:22;1.17;;;1.08;;
22490;SDS011;11412;50.802;4.350;2023-07-29T14:43:47;0.82;;;0.82;;
22490;SDS011;11412;50.802;4.350;2023-07-29T14:46:13;1.40;;;1.00;;
22490;SDS011;11412;50.802;4.350;2023-07-29T14:48:39;0.77;;;0.77;;
22490;SDS011;11412;50.802;4.350;2023-07-29T14:51:05;0.95;;;0.90;;
22490;SDS011;11412;50.802;4.350;2023-07-29T14:53:30;1.63;;;1.05;;
22490;SDS011;11412;50.802;4.350;2023-07-29T14:55:56;4.15;;;1.33;;
22490;SDS011;11412;50.802;4.350;2023-07-29T14:58:22;0.98;;;0.98;;
22490;SDS011;11412;50.802;4.350;2023-07-29T15:00:50;0.82;;;0.82;;